Flight Track Log - Related Links

Times and Time Zones

All times are in EDT time to prevent confusion due to time zone crossing. See the N885WT flight status page for this flight to view local times or setup timezone preferences in your user account.

Time Position Orientation Groundspeed Altitude Reporting Facility
EDT Latitude Longitude Course Direction KTS MPH feet Rate Location/Type
Sat 08:29:39 PM 43.6833 -79.6167 77° East 170 196 1,400  Level Toronto Center
Sat 08:30:39 PM 43.7333 -79.5667 36° Northeast 220 253 3,800 2,400 Climbing Toronto Center
Sat 08:31:39 PM 43.7833 -79.5000 44° Northeast 270 311 6,200 2,650 Climbing Toronto Center
Sat 08:32:39 PM 43.7833 -79.3833 90° East 290 334 9,100 2,250 Climbing Toronto Center
Sat 08:33:39 PM 43.7667 -79.2667 101° East 320 368 10,700 1,650 Climbing Toronto Center
Sat 08:34:39 PM 43.7500 -79.1333 100° East 360 414 12,400 1,800 Climbing Toronto Center
Sat 08:35:00 PM 43.9409 -78.1880 77° East  Level FlightAware Approximate
Sat 08:35:39 PM 43.7333 -78.9833 99° East 380 437 14,300  Level Toronto Center
Sat 08:36:39 PM 43.7000 -78.8500 109° East 400 460 16,200 1,750 Climbing Toronto Center
Sat 08:37:39 PM 43.7000 -78.6833 90° East 410 472 17,800 1,900 Climbing Toronto Center
Sat 08:38:39 PM 43.7333 -78.5333 73° East 410 472 20,000 2,000 Climbing Toronto Center
Sat 08:39:39 PM 43.7667 -78.3833 73° East 420 483 21,800 1,750 Climbing Toronto Center
Sat 08:40:39 PM 43.8167 -78.2167 67° East 430 495 23,500 1,700 Climbing Toronto Center
Sat 08:41:39 PM 43.8667 -78.0833 62° Northeast 450 518 25,200 2,000 Climbing Toronto Center
Sat 08:42:39 PM 43.9167 -77.9167 67° East 450 518 27,500 1,650 Climbing Toronto Center
Sat 08:43:39 PM 43.9667 -77.7500 67° East 460 529 28,500 1,050 Climbing Toronto Center
Sat 08:44:39 PM 44.0167 -77.5667 69° East 480 552 29,600 1,150 Climbing Toronto Center
Sat 08:45:39 PM 44.0833 -77.4000 61° Northeast 490 564 30,800 1,150 Climbing Toronto Center
Sat 08:46:39 PM 44.1167 -77.2167 76° East 500 575 31,900 1,311 Climbing Toronto Center
Sat 08:47:38 PM 44.1833 -77.0667 58° Northeast 500 575 33,400 1,613 Climbing Montreal Center
Sat 08:48:38 PM 44.2333 -76.9000 67° East 500 575 35,100 1,750 Climbing Montreal Center
Sat 08:49:38 PM 44.3000 -76.7333 61° Northeast 490 564 36,900 1,600 Climbing Montreal Center
Sat 08:50:38 PM 44.3500 -76.5500 69° East 470 541 38,300 1,350 Climbing Montreal Center
Sat 08:51:38 PM 44.4000 -76.4167 62° Northeast 460 529 39,600 900 Climbing Montreal Center
Sat 08:52:38 PM 44.4500 -76.2333 69° East 460 529 40,100 500 Climbing Montreal Center
Sat 08:53:38 PM 44.5000 -76.0667 67° East 460 529 40,600 350 Climbing Montreal Center
Sat 08:54:38 PM 44.5500 -75.9000 67° East 470 541 40,800 200 Climbing Montreal Center
Sat 08:55:38 PM 44.6000 -75.7333 67° East 480 552 41,000 100 Climbing Montreal Center
Sat 08:56:38 PM 44.6667 -75.5500 63° Northeast 490 564 41,000  Level Montreal Center
Sat 08:57:38 PM 44.7167 -75.3500 71° East 500 575 41,000  Level Montreal Center
Sat 08:58:38 PM 44.7667 -75.1667 69° East 510 587 41,000  Level Montreal Center
Sat 08:59:38 PM 44.8167 -75.0000 67° East 500 575 41,000  Level Montreal Center
Sat 09:00:38 PM 44.8667 -74.8167 69° East 500 575 41,000  Level Montreal Center
Sat 09:01:38 PM 44.9167 -74.6167 70° East 490 564 41,000  Level Montreal Center
Sat 09:02:38 PM 44.9667 -74.4500 67° East 490 564 41,000  Level Montreal Center
Sat 09:03:38 PM 45.0000 -74.2667 76° East 490 564 41,000  Level Montreal Center
Sat 09:04:38 PM 45.0333 -74.0667 77° East 500 575 41,000  Level Montreal Center
Sat 09:05:38 PM 45.0667 -73.8833 76° East 500 575 41,000  Level Montreal Center
Sat 09:06:38 PM 45.1000 -73.6833 77° East 500 575 41,000  Level Montreal Center
Sat 09:07:38 PM 45.1333 -73.5000 75° East 500 575 41,000  Level Montreal Center
Sat 09:08:38 PM 45.1667 -73.3000 77° East 510 587 41,000  Level Montreal Center
Sat 09:09:38 PM 45.2000 -73.1167 75° East 510 587 41,000  Level Montreal Center
Sat 09:10:38 PM 45.2333 -72.9000 78° East 500 575 41,000  Level Montreal Center
Sat 09:11:38 PM 45.2667 -72.7333 74° East 490 564 41,000  Level Montreal Center
Sat 09:12:38 PM 45.2833 -72.5167 84° East 500 575 41,000  Level Montreal Center
Sat 09:13:38 PM 45.3000 -72.3167 83° East 510 587 41,000  Level Montreal Center
Sat 09:14:38 PM 45.3000 -72.1333 90° East 510 587 41,000  Level Montreal Center
Sat 09:15:38 PM 45.3333 -71.9167 78° East 510 587 41,000  Level Montreal Center
Sat 09:16:38 PM 45.3333 -71.7167 90° East 500 575 41,000  Level Montreal Center
Sat 09:17:31 PM 45.3539 -71.5867 77° East 504 580 41,000  Level Boston Center
Sat 09:18:31 PM 45.3606 -71.3681 87° East 499 574 41,000  Level Boston Center
Sat 09:19:38 PM 45.3667 -71.1333 88° East 500 575 41,000  Level Montreal Center
Sat 09:20:31 PM 45.3831 -70.9744 82° East 499 574 41,000  Level Boston Center
Sat 09:21:31 PM 45.4014 -70.7731 83° East 499 574 41,000  Level Boston Center
Sat 09:22:31 PM 45.4175 -70.5981 82° East 499 574 41,000  Level Boston Center
Sat 09:23:31 PM 45.4369 -70.3964 82° East 499 574 41,000  Level Boston Center
Sat 09:24:31 PM 45.4519 -70.2006 84° East 499 574 41,000  Level Boston Center
Sat 09:25:31 PM 45.4731 -70.0044 81° East 499 574 41,000  Level Boston Center
Sat 09:26:31 PM 45.5044 -69.8106 77° East 504 580 41,000  Level Boston Center
Sat 09:27:31 PM 45.5308 -69.6136 79° East 504 580 41,000  Level Boston Center
Sat 09:28:31 PM 45.5522 -69.4614 79° East 504 580 41,000  Level Boston Center
Sat 09:29:31 PM 45.5856 -69.2283 78° East 504 580 41,000  Level Boston Center
Sat 09:30:31 PM 45.6169 -69.0158 78° East 498 573 41,000  Level Boston Center
Sat 09:31:31 PM 45.6422 -68.8214 79° East 498 573 41,000  Level Boston Center
Sat 09:32:31 PM 45.6714 -68.6264 78° East 493 567 41,000  Level Boston Center
Sat 09:33:31 PM 45.6961 -68.4286 80° East 493 567 41,000  Level Boston Center
Sat 09:34:31 PM 45.7225 -68.2333 79° East 493 567 41,000  Level Boston Center
Sat 09:35:43 PM 45.7464 -68.0294 80° East 498 573 41,000  Level Boston Center
Sat 09:36:23 PM 45.7500 -67.8500 88° East 510 587 41,000  Level Moncton Center
Sat 09:37:23 PM 45.7833 -67.6667 75° East 510 587 41,000  Level Moncton Center
Sat 09:38:23 PM 45.8000 -67.4500 84° East 510 587 41,000  Level Moncton Center
Sat 09:39:23 PM 45.8167 -67.2500 83° East 510 587 41,000  Level Moncton Center
Sat 09:40:23 PM 45.8667 -67.0667 69° East 500 575 41,000  Level Moncton Center
Sat 09:41:23 PM 45.8833 -66.8667 83° East 500 575 41,000  Level Moncton Center
Sat 09:42:23 PM 45.9000 -66.6833 82° East 500 575 41,000  Level Moncton Center
Sat 09:43:23 PM 45.9167 -66.4667 84° East 500 575 41,000  Level Moncton Center
Sat 09:44:23 PM 45.9500 -66.2667 76° East 510 587 41,000  Level Moncton Center
Sat 09:45:23 PM 45.9667 -66.0833 82° East 510 587 41,000  Level Moncton Center
Sat 09:46:23 PM 45.9833 -65.8667 84° East 500 575 41,000  Level Moncton Center
Sat 09:47:23 PM 46.0167 -65.6667 76° East 500 575 41,000  Level Moncton Center
Sat 09:48:23 PM 46.0333 -65.4500 84° East 500 575 41,000  Level Moncton Center
Sat 09:49:23 PM 46.0500 -65.2667 82° East 500 575 41,000  Level Moncton Center
Sat 09:50:23 PM 46.0667 -65.0667 83° East 500 575 41,000  Level Moncton Center
Sat 09:51:23 PM 46.1000 -64.8833 75° East 500 575 41,000  Level Moncton Center
Sat 09:52:23 PM 46.1167 -64.6833 83° East 500 575 41,000  Level Moncton Center
Sat 09:53:23 PM 46.1500 -64.4667 77° East 510 587 41,000  Level Moncton Center
Sat 09:54:23 PM 46.1667 -64.2833 82° East 510 587 41,000  Level Moncton Center
Sat 09:55:23 PM 46.1833 -64.0833 83° East 500 575 41,000  Level Moncton Center
Sat 09:56:23 PM 46.2000 -63.8667 84° East 500 575 41,000  Level Moncton Center
Sat 09:57:23 PM 46.2000 -63.6667 90° East 500 575 41,000  Level Moncton Center
Sat 09:58:23 PM 46.2167 -63.4500 84° East 510 587 41,000  Level Moncton Center
Sat 09:59:23 PM 46.2333 -63.2667 82° East 510 587 41,000  Level Moncton Center
Sat 10:00:23 PM 46.2667 -63.0667 76° East 510 587 41,000  Level Moncton Center
Sat 10:01:23 PM 46.2833 -62.8667 83° East 500 575 41,000  Level Moncton Center
Sat 10:02:23 PM 46.3000 -62.6500 84° East 500 575 41,000  Level Moncton Center
Sat 10:03:23 PM 46.3167 -62.4667 82° East 500 575 41,000  Level Moncton Center
Sat 10:04:23 PM 46.3167 -62.2667 90° East 500 575 41,000  Level Moncton Center
Sat 10:05:23 PM 46.3333 -62.0500 84° East 510 587 41,000  Level Moncton Center
Sat 10:06:23 PM 46.3667 -61.8500 76° East 510 587 41,000  Level Moncton Center
Sat 10:07:23 PM 46.3833 -61.6333 84° East 500 575 41,000  Level Moncton Center
Sat 10:07:59 PM 46.3833 -61.5167 90° East 510 587 41,000  Level Gander Center
Sat 10:08:59 PM 46.4000 -61.3000 84° East 510 587 41,000  Level Gander Center
Sat 10:09:23 PM 46.4000 -61.2167 90° East 510 587 41,000  Level Moncton Center
Sat 10:10:23 PM 46.4167 -61.0167 83° East 510 587 41,000  Level Moncton Center
Sat 10:11:23 PM 46.4167 -60.8333 90° East 510 587 41,000  Level Moncton Center
Sat 10:11:59 PM 46.4500 -60.7000 70° East 510 587 41,000  Level Gander Center
Sat 10:12:23 PM 46.4500 -60.6000 90° East 510 587 41,000  Level Moncton Center
Sat 10:13:23 PM 46.4500 -60.4167 90° East 500 575 41,000  Level Moncton Center
Sat 10:14:23 PM 46.4667 -60.2167 83° East 510 587 41,000  Level Moncton Center
Sat 10:15:23 PM 46.4833 -60.0167 83° East 510 587 41,000  Level Moncton Center
Sat 10:16:23 PM 46.4833 -59.8000 90° East 510 587 41,000  Level Moncton Center
Sat 10:17:23 PM 46.5000 -59.6000 83° East 500 575 41,000  Level Moncton Center
Sat 10:17:59 PM 46.5167 -59.4833 78° East 510 587 41,000  Level Gander Center
Sat 10:18:59 PM 46.5333 -59.2667 84° East 510 587 41,000  Level Gander Center
Sat 10:19:23 PM 46.5333 -59.1833 90° East 500 575 41,000  Level Moncton Center
Sat 10:20:23 PM 46.5333 -59.0000 90° East 500 575 41,000  Level Moncton Center
Sat 10:21:23 PM 46.5333 -58.7667 90° East 500 575 41,000  Level Moncton Center
Sat 10:22:23 PM 46.5500 -58.5833 82° East 500 575 41,000  Level Moncton Center
Sat 10:23:23 PM 46.5500 -58.3833 90° East 500 575 41,000  Level Moncton Center
Sat 10:23:59 PM 46.5667 -58.2667 78° East 500 575 41,000  Level Gander Center
Sat 10:24:59 PM 46.5833 -58.0500 84° East 500 575 41,000  Level Gander Center
Sat 10:25:23 PM 46.5833 -57.9667 90° East 490 564 41,000  Level Moncton Center
Sat 10:26:23 PM 46.5833 -57.7667 90° East 510 587 41,000  Level Moncton Center
Sat 10:27:23 PM 46.5833 -57.5500 90° East 500 575 41,000  Level Moncton Center
Sat 10:28:23 PM 46.6000 -57.3500 83° East 510 587 41,000  Level Moncton Center
Sat 10:29:23 PM 46.6000 -57.1500 90° East 510 587 41,000  Level Moncton Center
Sat 10:30:23 PM 46.6167 -56.9333 84° East 510 587 41,000  Level Moncton Center
Sat 10:31:23 PM 46.6167 -56.7333 90° East 510 587 41,000  Level Moncton Center
Sat 10:32:23 PM 46.6167 -56.5167 90° East 510 587 41,000  Level Moncton Center
Sat 10:33:23 PM 46.6333 -56.3167 83° East 510 587 41,000  Level Moncton Center
Sat 10:34:23 PM 46.6500 -56.1167 83° East 510 587 41,000  Level Moncton Center
Sat 10:35:23 PM 46.6667 -55.9167 83° East 520 598 41,000  Level Moncton Center
Sat 10:36:23 PM 46.6833 -55.7000 84° East 520 598 41,000  Level Moncton Center
Sat 10:37:23 PM 46.7000 -55.4833 84° East 520 598 41,000  Level Moncton Center
Sat 10:38:13 PM 46.7167 -55.3167 82° East 520 598 41,000  Level Gander Center
Sat 10:39:13 PM 46.7167 -55.1167 90° East 510 587 41,000  Level Gander Center
Sat 10:40:13 PM 46.7500 -54.9000 77° East 510 587 41,000  Level Gander Center
Sat 10:41:13 PM 46.7500 -54.7000 90° East 510 587 41,000  Level Gander Center
Sat 10:42:13 PM 46.7667 -54.4833 84° East 510 587 41,000  Level Gander Center
Sat 10:43:13 PM 46.7833 -54.2833 83° East 520 598 41,000  Level Gander Center
Sat 10:43:59 PM 46.8000 -54.1333 81° East 520 598 41,000  Level Gander Center
Sat 10:44:59 PM 46.8000 -53.9167 90° East 520 598 41,000  Level Gander Center
Sat 10:45:23 PM 46.8000 -53.8333 90° East 520 598 41,000  Level Moncton Center
Sat 10:46:23 PM 46.8167 -53.6167 84° East 520 598 41,000  Level Moncton Center
Sat 10:47:23 PM 46.8333 -53.4167 83° East 520 598 41,000  Level Moncton Center
Sat 10:48:13 PM 46.8500 -53.2333 82° East 510 587 41,000  Level Gander Center
Sat 10:49:13 PM 46.8500 -53.0500 90° East 510 587 41,000  Level Gander Center
Sat 10:50:13 PM 46.8667 -52.8167 84° East 510 587 41,000  Level Gander Center
Sat 10:50:59 PM 46.8833 -52.6667 81° East 510 587 41,000  Level Gander Center
Sat 10:51:59 PM 46.9000 -52.4667 83° East 510 587 41,000  Level Gander Center
Sat 10:52:23 PM 46.9000 -52.3833 90° East 520 598 41,000  Level Moncton Center
Sat 10:53:13 PM 46.9000 -52.2000 90° East 520 598 41,000  Level Gander Center
Sat 10:54:13 PM 46.9000 -52.0000 90° East 520 598 41,000  Level Gander Center
Sat 10:55:13 PM 46.9167 -51.7833 83° East 520 598 41,000  Level Gander Center
Sat 10:56:13 PM 46.9167 -51.5667 90° East 520 598 41,000  Level Gander Center
Sat 10:57:13 PM 46.9333 -51.3333 84° East 520 598 41,000  Level Gander Center
Sat 10:58:13 PM 46.9500 -51.1333 83° East 520 598 41,000  Level Gander Center
Sat 10:58:59 PM 46.9500 -50.9667 90° East 520 598 41,000  Level Gander Center
Sat 10:59:59 PM 46.9667 -50.7667 83° East 520 598 41,000  Level Gander Center
Sat 11:00:59 PM 46.9667 -50.5667 90° East 510 587 41,000  Level Gander Center
Sat 11:01:59 PM 46.9667 -50.3500 90° East 520 598 41,000  Level Gander Center
Sat 11:02:59 PM 46.9667 -50.1500 90° East 510 587 41,000  Level Gander Center
Sat 11:03:59 PM 47.0000 -49.9167 78° East 510 587 41,000  Level Gander Center
Sat 11:04:59 PM 47.0500 -49.7333 68° East 520 598 41,000  Level Gander Center
Sat 11:05:59 PM 47.1333 -49.5500 56° Northeast 530 610 41,000  Level Gander Center
Sat 11:06:59 PM 47.1833 -49.3500 70° East 530 610 41,000  Level Gander Center
Sat 11:07:59 PM 47.2500 -49.1667 62° Northeast 530 610 41,000  Level Gander Center
Sat 11:08:59 PM 47.3333 -48.9833 56° Northeast 520 598 41,000  Level Gander Center
Sat 11:09:59 PM 47.4000 -48.7833 64° Northeast 520 598 41,000  Level Gander Center
Sat 11:10:59 PM 47.4500 -48.6000 68° East 520 598 41,000  Level Gander Center
Sat 11:11:59 PM 47.5167 -48.4000 64° Northeast 520 598 41,000  Level Gander Center
Sat 11:12:59 PM 47.5833 -48.2167 62° Northeast 530 610 41,000  Level Gander Center
Sat 11:14:13 PM 47.6667 -47.9667 64° Northeast 530 610 41,000  Level Gander Center
Sat 11:14:59 PM 47.7167 -47.8333 61° Northeast 530 610 41,000  Level Gander Center
Sat 11:15:59 PM 47.8000 -47.6333 58° Northeast 540 621 41,000  Level Gander Center
Sat 11:16:59 PM 47.8500 -47.4500 68° East 520 598 41,000  Level Gander Center
Sat 11:17:59 PM 47.9167 -47.2167 67° East 530 610 41,000  Level Gander Center
Sat 11:18:59 PM 47.9833 -47.0333 61° Northeast 540 621 41,000  Level Gander Center
Sat 11:19:59 PM 48.0500 -46.8333 63° Northeast 540 621 41,000  Level Gander Center
Sat 11:20:59 PM 48.1167 -46.6333 63° Northeast 540 621 41,000  Level Gander Center
Sat 11:21:59 PM 48.1500 -46.4500 75° East 540 621 41,000 -9 Level Gander Center
Sat 11:23:00 PM 48.2440 -46.2968 65° Northeast  Level FlightAware Approximate
Sat 11:30:00 PM 48.6393 -45.0130 65° Northeast  Level FlightAware Approximate
Sat 11:31:00 PM 48.6945 -44.8279 66° East  Level FlightAware Approximate
Sat 11:32:00 PM 48.7495 -44.6425 66° East  Level FlightAware Approximate
Sat 11:33:00 PM 48.8042 -44.4566 66° East  Level FlightAware Approximate
Sat 11:34:00 PM 48.8585 -44.2703 67° East  Level FlightAware Approximate
Sat 11:35:00 PM 48.9117 -44.0831 67° East  Level FlightAware Approximate
Sat 11:36:00 PM 48.9647 -43.8955 67° East  Level FlightAware Approximate
Sat 11:37:00 PM 49.0173 -43.7075 67° East  Level FlightAware Approximate
Sat 11:38:00 PM 49.0697 -43.5191 67° East  Level FlightAware Approximate
Sat 11:39:00 PM 49.1217 -43.3303 67° East  Level FlightAware Approximate
Sat 11:40:00 PM 49.1735 -43.1412 67° East  Level FlightAware Approximate
Sat 11:41:00 PM 49.2249 -42.9516 67° East  Level FlightAware Approximate
Sat 11:42:00 PM 49.2760 -42.7616 68° East  Level FlightAware Approximate
Sat 11:43:00 PM 49.3268 -42.5712 68° East  Level FlightAware Approximate
Sat 11:44:00 PM 49.3773 -42.3805 68° East  Level FlightAware Approximate
Sat 11:45:00 PM 49.4274 -42.1893 68° East  Level FlightAware Approximate
Sat 11:46:00 PM 49.4791 -41.9990 67° East  Level FlightAware Approximate
Sat 11:47:00 PM 49.5308 -41.8083 67° East  Level FlightAware Approximate
Sat 11:48:00 PM 49.5821 -41.6173 67° East  Level FlightAware Approximate
Sat 11:49:00 PM 49.6331 -41.4259 68° East  Level FlightAware Approximate
Sat 11:50:00 PM 49.6838 -41.2341 68° East  Level FlightAware Approximate
Sat 11:51:00 PM 49.7342 -41.0419 68° East  Level FlightAware Approximate
Sat 11:52:00 PM 49.7843 -40.8492 68° East  Level FlightAware Approximate
Sat 11:53:00 PM 49.8340 -40.6562 68° East  Level FlightAware Approximate
Sat 11:54:00 PM 49.8834 -40.4628 68° East  Level FlightAware Approximate
Sat 11:55:00 PM 49.9325 -40.2690 68° East  Level FlightAware Approximate
Sat 11:56:00 PM 49.9813 -40.0748 69° East  Level FlightAware Approximate
Sat 11:57:00 PM 50.0288 -39.8796 70° East  Level FlightAware Approximate
Sat 11:58:00 PM 50.0752 -39.6837 70° East  Level FlightAware Approximate
Sat 11:59:00 PM 50.1213 -39.4873 70° East  Level FlightAware Approximate
Sun 12:00:00 AM 50.1671 -39.2906 70° East  Level FlightAware Approximate
Sun 12:01:00 AM 50.2126 -39.0936 70° East  Level FlightAware Approximate
Sun 12:02:00 AM 50.2578 -38.8961 70° East  Level FlightAware Approximate
Sun 12:03:00 AM 50.3035 -38.6988 69° East  Level FlightAware Approximate
Sun 12:04:00 AM 50.3503 -38.5019 70° East  Level FlightAware Approximate
Sun 12:05:00 AM 50.3967 -38.3046 70° East  Level FlightAware Approximate
Sun 12:06:00 AM 50.4428 -38.1069 70° East  Level FlightAware Approximate
Sun 12:07:00 AM 50.4886 -37.9089 70° East  Level FlightAware Approximate
Sun 12:08:00 AM 50.5340 -37.7104 70° East  Level FlightAware Approximate
Sun 12:09:00 AM 50.5792 -37.5117 70° East  Level FlightAware Approximate
Sun 12:10:00 AM 50.6244 -37.3126 70° East  Level FlightAware Approximate
Sun 12:11:00 AM 50.6691 -37.1133 70° East  Level FlightAware Approximate
Sun 12:12:00 AM 50.7136 -36.9135 71° East  Level FlightAware Approximate
Sun 12:13:00 AM 50.7577 -36.7134 71° East  Level FlightAware Approximate
Sun 12:14:00 AM 50.8014 -36.5129 71° East  Level FlightAware Approximate
Sun 12:15:00 AM 50.8449 -36.3120 71° East  Level FlightAware Approximate
Sun 12:16:00 AM 50.8879 -36.1107 71° East  Level FlightAware Approximate
Sun 12:17:00 AM 50.9306 -35.9091 71° East  Level FlightAware Approximate
Sun 12:18:00 AM 50.9730 -35.7071 72° East  Level FlightAware Approximate
Sun 12:19:00 AM 51.0151 -35.5047 72° East  Level FlightAware Approximate
Sun 12:20:00 AM 51.0567 -35.3020 72° East  Level FlightAware Approximate
Sun 12:21:00 AM 51.0981 -35.0989 72° East  Level FlightAware Approximate
Sun 12:22:00 AM 51.1390 -34.8954 72° East  Level FlightAware Approximate
Sun 12:23:00 AM 51.1796 -34.6916 72° East  Level FlightAware Approximate
Sun 12:24:00 AM 51.2199 -34.4874 72° East  Level FlightAware Approximate
Sun 12:25:00 AM 51.2598 -34.2829 73° East  Level FlightAware Approximate
Sun 12:26:00 AM 51.2994 -34.0780 73° East  Level FlightAware Approximate
Sun 12:27:00 AM 51.3386 -33.8728 73° East  Level FlightAware Approximate
Sun 12:28:00 AM 51.3774 -33.6672 73° East  Level FlightAware Approximate
Sun 12:29:00 AM 51.4159 -33.4612 73° East  Level FlightAware Approximate
Sun 12:30:00 AM 51.4540 -33.2550 73° East  Level FlightAware Approximate
Sun 12:31:00 AM 51.4917 -33.0483 74° East  Level FlightAware Approximate
Sun 12:32:00 AM 51.5291 -32.8414 74° East  Level FlightAware Approximate
Sun 12:33:00 AM 51.5661 -32.6341 74° East  Level FlightAware Approximate
Sun 12:34:00 AM 51.6028 -32.4264 74° East  Level FlightAware Approximate
Sun 12:35:00 AM 51.6391 -32.2185 74° East  Level FlightAware Approximate
Sun 12:36:00 AM 51.6750 -32.0102 74° East  Level FlightAware Approximate
Sun 12:37:00 AM 51.7105 -31.8015 75° East  Level FlightAware Approximate
Sun 12:38:00 AM 51.7457 -31.5926 75° East  Level FlightAware Approximate
Sun 12:39:00 AM 51.7805 -31.3833 75° East  Level FlightAware Approximate
Sun 12:40:00 AM 51.8150 -31.1737 75° East  Level FlightAware Approximate
Sun 12:41:00 AM 51.8490 -30.9638 75° East  Level FlightAware Approximate
Sun 12:42:00 AM 51.8827 -30.7535 75° East  Level FlightAware Approximate
Sun 12:43:00 AM 51.9160 -30.5430 76° East  Level FlightAware Approximate
Sun 12:44:00 AM 51.9490 -30.3321 76° East  Level FlightAware Approximate
Sun 12:45:00 AM 51.9815 -30.1209 76° East  Level FlightAware Approximate
Sun 12:46:00 AM 52.0039 -29.9070 86° East  Level FlightAware Approximate
Sun 12:47:00 AM 52.0128 -29.6895 86° East  Level FlightAware Approximate
Sun 12:48:00 AM 52.0212 -29.4720 86° East  Level FlightAware Approximate
Sun 12:49:00 AM 52.0293 -29.2545 86° East  Level FlightAware Approximate
Sun 12:50:00 AM 52.0369 -29.0368 87° East  Level FlightAware Approximate
Sun 12:51:00 AM 52.0442 -28.8191 87° East  Level FlightAware Approximate
Sun 12:52:00 AM 52.0510 -28.6013 87° East  Level FlightAware Approximate
Sun 12:53:00 AM 52.0575 -28.3834 87° East  Level FlightAware Approximate
Sun 12:54:00 AM 52.0635 -28.1655 87° East  Level FlightAware Approximate
Sun 12:55:00 AM 52.0691 -27.9475 88° East  Level FlightAware Approximate
Sun 12:56:00 AM 52.0744 -27.7295 88° East  Level FlightAware Approximate
Sun 12:57:00 AM 52.0792 -27.5114 88° East  Level FlightAware Approximate
Sun 12:58:00 AM 52.0837 -27.2932 88° East  Level FlightAware Approximate
Sun 12:59:00 AM 52.0877 -27.0751 88° East  Level FlightAware Approximate
Sun 01:00:00 AM 52.0913 -26.8568 88° East  Level FlightAware Approximate
Sun 01:01:00 AM 52.0946 -26.6386 89° East  Level FlightAware Approximate
Sun 01:02:00 AM 52.0974 -26.4203 89° East  Level FlightAware Approximate
Sun 01:03:00 AM 52.0998 -26.2020 89° East  Level FlightAware Approximate
Sun 01:04:00 AM 52.1018 -25.9837 89° East  Level FlightAware Approximate
Sun 01:05:00 AM 52.1035 -25.7654 89° East  Level FlightAware Approximate
Sun 01:06:00 AM 52.1047 -25.5470 89° East  Level FlightAware Approximate
Sun 01:07:00 AM 52.1055 -25.3287 90° East  Level FlightAware Approximate
Sun 01:08:00 AM 52.1059 -25.1103 90° East  Level FlightAware Approximate
Sun 01:09:00 AM 52.1059 -24.8919 90° East  Level FlightAware Approximate
Sun 01:10:00 AM 52.1055 -24.6735 90° East  Level FlightAware Approximate
Sun 01:11:00 AM 52.1047 -24.4552 90° East  Level FlightAware Approximate
Sun 01:12:00 AM 52.1035 -24.2368 90° East  Level FlightAware Approximate
Sun 01:13:00 AM 52.1019 -24.0185 91° East  Level FlightAware Approximate
Sun 01:14:00 AM 52.0998 -23.8002 91° East  Level FlightAware Approximate
Sun 01:15:00 AM 52.0974 -23.5819 91° East  Level FlightAware Approximate
Sun 01:16:00 AM 52.0946 -23.3636 91° East  Level FlightAware Approximate
Sun 01:17:00 AM 52.0914 -23.1454 91° East  Level FlightAware Approximate
Sun 01:18:00 AM 52.0877 -22.9272 91° East  Level FlightAware Approximate
Sun 01:19:00 AM 52.0837 -22.7090 92° East  Level FlightAware Approximate
Sun 01:20:00 AM 52.0793 -22.4909 92° East  Level FlightAware Approximate
Sun 01:21:00 AM 52.0745 -22.2728 92° East  Level FlightAware Approximate
Sun 01:22:00 AM 52.0692 -22.0547 92° East  Level FlightAware Approximate
Sun 01:23:00 AM 52.0636 -21.8367 92° East  Level FlightAware Approximate
Sun 01:24:00 AM 52.0575 -21.6188 92° East  Level FlightAware Approximate
Sun 01:25:00 AM 52.0511 -21.4009 93° East  Level FlightAware Approximate
Sun 01:26:00 AM 52.0442 -21.1831 93° East  Level FlightAware Approximate
Sun 01:27:00 AM 52.0370 -20.9654 93° East  Level FlightAware Approximate
Sun 01:28:00 AM 52.0293 -20.7477 93° East  Level FlightAware Approximate
Sun 01:29:00 AM 52.0213 -20.5301 93° East  Level FlightAware Approximate
Sun 01:30:00 AM 52.0129 -20.3126 94° East  Level FlightAware Approximate
Sun 01:31:00 AM 52.0040 -20.0952 94° East  Level FlightAware Approximate
Sun 01:32:00 AM 51.9822 -19.8810 104° East  Level FlightAware Approximate
Sun 01:33:00 AM 51.9502 -19.6696 104° East  Level FlightAware Approximate
Sun 01:34:00 AM 51.9179 -19.4585 104° East  Level FlightAware Approximate
Sun 01:35:00 AM 51.8852 -19.2477 104° East  Level FlightAware Approximate
Sun 01:36:00 AM 51.8521 -19.0372 104° East  Level FlightAware Approximate
Sun 01:37:00 AM 51.8186 -18.8270 104° East  Level FlightAware Approximate
Sun 01:38:00 AM 51.7847 -18.6171 105° East  Level FlightAware Approximate
Sun 01:39:00 AM 51.7505 -18.4076 105° East  Level FlightAware Approximate
Sun 01:40:00 AM 51.7159 -18.1983 105° East  Level FlightAware Approximate
Sun 01:41:00 AM 51.6809 -17.9894 105° East  Level FlightAware Approximate
Sun 01:42:00 AM 51.6456 -17.7808 105° East  Level FlightAware Approximate
Sun 01:43:00 AM 51.6099 -17.5726 105° East  Level FlightAware Approximate
Sun 01:44:00 AM 51.5738 -17.3646 106° East  Level FlightAware Approximate
Sun 01:45:00 AM 51.5374 -17.1570 106° East  Level FlightAware Approximate
Sun 01:46:00 AM 51.5006 -16.9497 106° East  Level FlightAware Approximate
Sun 01:47:00 AM 51.4634 -16.7428 106° East  Level FlightAware Approximate
Sun 01:48:00 AM 51.4259 -16.5362 106° East  Level FlightAware Approximate
Sun 01:49:00 AM 51.3880 -16.3299 106° East  Level FlightAware Approximate
Sun 01:50:00 AM 51.3497 -16.1240 106° East  Level FlightAware Approximate
Sun 01:51:00 AM 51.3111 -15.9185 107° East  Level FlightAware Approximate
Sun 01:52:00 AM 51.2721 -15.7132 107° East  Level FlightAware Approximate
Sun 01:53:00 AM 51.2328 -15.5084 107° East  Level FlightAware Approximate
Sun 01:54:00 AM 51.1931 -15.3039 107° East  Level FlightAware Approximate
Sun 01:55:00 AM 51.1530 -15.0997 107° East  Level FlightAware Approximate
Sun 01:56:00 AM 51.1138 -14.8953 107° East  Level FlightAware Approximate
Sun 01:57:00 AM 51.0753 -14.6908 107° East  Level FlightAware Approximate
Sun 01:58:00 AM 51.0365 -14.4865 107° East  Level FlightAware Approximate
Sun 01:59:00 AM 50.9962 -14.2831 108° East  Level FlightAware Approximate
Sun 02:00:00 AM 50.9546 -14.0806 108° East  Level FlightAware Approximate
Sun 02:01:00 AM 50.9127 -13.8785 108° East  Level FlightAware Approximate
Sun 02:02:00 AM 50.8704 -13.6767 108° East  Level FlightAware Approximate
Sun 02:03:00 AM 50.8278 -13.4753 108° East  Level FlightAware Approximate
Sun 02:04:00 AM 50.7848 -13.2742 109° East  Level FlightAware Approximate
Sun 02:05:00 AM 50.7414 -13.0736 109° East  Level FlightAware Approximate
Sun 02:06:00 AM 50.6978 -12.8733 109° East  Level FlightAware Approximate
Sun 02:07:00 AM 50.6537 -12.6733 109° East  Level FlightAware Approximate
Sun 02:08:00 AM 50.6094 -12.4738 109° East  Level FlightAware Approximate
Sun 02:09:00 AM 50.5647 -12.2746 109° East  Level FlightAware Approximate
Sun 02:10:00 AM 50.5196 -12.0758 110° East  Level FlightAware Approximate
Sun 02:11:00 AM 50.4743 -11.8774 110° East  Level FlightAware Approximate
Sun 02:12:00 AM 50.4285 -11.6794 110° East  Level FlightAware Approximate
Sun 02:13:00 AM 50.3825 -11.4817 110° East  Level FlightAware Approximate
Sun 02:14:00 AM 50.3361 -11.2845 110° East  Level FlightAware Approximate
Sun 02:15:00 AM 50.2894 -11.0876 110° East  Level FlightAware Approximate
Sun 02:16:00 AM 50.2423 -10.8911 110° East  Level FlightAware Approximate
Sun 02:16:51 AM 49.8943 -8.9868 110° East 496 571 39,500  Level FlightAware UK
Sun 02:17:09 AM 49.8734 -8.9331 121° Southeast 498 573 39,500  Level FlightAware UK
Sun 02:17:27 AM 49.8523 -8.8793 121° Southeast 496 571 39,500  Level FlightAware UK
Sun 02:17:45 AM 49.8311 -8.8256 121° Southeast 498 573 39,500  Level FlightAware UK
Sun 02:18:03 AM 49.8099 -8.7716 121° Southeast 500 575 39,500  Level FlightAware UK
Sun 02:18:21 AM 49.7885 -8.7177 122° Southeast 500 575 39,500  Level FlightAware UK
Sun 02:18:39 AM 49.7669 -8.6638 122° Southeast 500 575 39,500  Level FlightAware UK
Sun 02:18:57 AM 49.7454 -8.6099 122° Southeast 502 578 39,500  Level FlightAware UK
Sun 02:19:15 AM 49.7239 -8.5560 122° Southeast 500 575 39,500  Level FlightAware UK
Sun 02:19:33 AM 49.7024 -8.5022 122° Southeast 498 573 39,500  Level FlightAware UK
Sun 02:19:51 AM 49.6809 -8.4486 122° Southeast 498 573 39,500  Level FlightAware UK
Sun 02:20:09 AM 49.6593 -8.3952 122° Southeast 498 573 39,500  Level FlightAware UK
Sun 02:20:27 AM 49.6379 -8.3417 122° Southeast 498 573 39,500  Level FlightAware UK
Sun 02:20:45 AM 49.6165 -8.2883 122° Southeast 500 575 39,500  Level FlightAware UK
Sun 02:21:03 AM 49.5949 -8.2351 122° Southeast 498 573 39,500  Level FlightAware UK
Sun 02:21:21 AM 49.5734 -8.1819 122° Southeast 502 578 39,500  Level FlightAware UK
Sun 02:21:39 AM 49.5518 -8.1286 122° Southeast 502 578 39,500  Level FlightAware UK
Sun 02:21:57 AM 49.5302 -8.0755 122° Southeast 502 578 39,500  Level FlightAware UK
Sun 02:22:15 AM 49.5087 -8.0217 122° Southeast 502 578 39,500  Level FlightAware UK
Sun 02:22:33 AM 49.4965 -7.9624 108° East 500 575 39,500  Level FlightAware UK
Sun 02:22:51 AM 49.4862 -7.9030 105° East 500 575 39,500  Level FlightAware UK
Sun 02:23:09 AM 49.4784 -7.8427 101° East 502 578 39,500  Level FlightAware UK
Sun 02:23:27 AM 49.4702 -7.7826 102° East 500 575 39,500  Level FlightAware UK
Sun 02:23:45 AM 49.4622 -7.7228 102° East 500 575 39,500  Level FlightAware UK
Sun 02:24:03 AM 49.4540 -7.6631 102° East 500 575 39,500  Level FlightAware UK
Sun 02:24:21 AM 49.4457 -7.6035 102° East 500 575 39,500  Level FlightAware UK
Sun 02:24:39 AM 49.4373 -7.5441 102° East 498 573 39,500  Level FlightAware UK
Sun 02:24:57 AM 49.4286 -7.4848 103° East 500 575 39,500  Level FlightAware UK
Sun 02:25:15 AM 49.4161 -7.4270 108° East 502 578 39,500  Level FlightAware UK
Sun 02:25:33 AM 49.4020 -7.3698 111° Southeast 502 578 39,500  Level FlightAware UK
Sun 02:25:51 AM 49.3867 -7.3136 113° Southeast 502 578 39,500  Level FlightAware UK
Sun 02:26:09 AM 49.3718 -7.2576 112° Southeast 502 578 39,500  Level FlightAware UK
Sun 02:26:27 AM 49.3566 -7.2010 112° Southeast 500 575 39,500  Level FlightAware UK
Sun 02:26:45 AM 49.3416 -7.1447 112° Southeast 500 575 39,500  Level FlightAware UK
Sun 02:27:03 AM 49.3264 -7.0886 113° Southeast 500 575 39,500  Level FlightAware UK
Sun 02:27:21 AM 49.3111 -7.0327 113° Southeast 500 575 39,500  Level FlightAware UK
Sun 02:27:39 AM 49.2959 -6.9767 113° Southeast 500 575 39,500  Level FlightAware UK
Sun 02:27:58 AM 49.2805 -6.9201 113° Southeast 502 578 39,500  Level FlightAware UK
Sun 02:28:16 AM 49.2653 -6.8638 112° Southeast 500 575 39,500  Level FlightAware UK
Sun 02:28:34 AM 49.2500 -6.8076 113° Southeast 502 578 39,500  Level FlightAware UK
Sun 02:28:52 AM 49.2346 -6.7516 113° Southeast 502 578 39,500  Level FlightAware UK
Sun 02:29:10 AM 49.2193 -6.6957 113° Southeast 502 578 39,500  Level FlightAware UK
Sun 02:29:28 AM 49.2039 -6.6396 113° Southeast 502 578 39,500  Level FlightAware UK
Sun 02:29:46 AM 49.1887 -6.5835 113° Southeast 500 575 39,500  Level FlightAware UK
Sun 02:30:04 AM 49.1732 -6.5275 113° Southeast 500 575 39,500  Level FlightAware UK
Sun 02:30:22 AM 49.1578 -6.4715 113° Southeast 502 578 39,500  Level FlightAware UK
Sun 02:30:40 AM 49.1424 -6.4155 113° Southeast 502 578 39,500  Level FlightAware UK
Sun 02:30:58 AM 49.1269 -6.3595 113° Southeast 502 578 39,500  Level FlightAware UK
Sun 02:31:16 AM 49.1114 -6.3036 113° Southeast 502 578 39,500  Level FlightAware UK
Sun 02:31:34 AM 49.0957 -6.2478 113° Southeast 502 578 39,500  Level FlightAware UK
Sun 02:31:52 AM 49.0798 -6.1915 113° Southeast 502 578 39,500  Level FlightAware UK
Sun 02:32:10 AM 49.0643 -6.1359 113° Southeast 500 575 39,500  Level FlightAware UK
Sun 02:32:28 AM 49.0487 -6.0803 113° Southeast 500 575 39,500  Level FlightAware UK
Sun 02:32:46 AM 49.0330 -6.0248 113° Southeast 500 575 39,500  Level FlightAware UK
Sun 02:33:04 AM 49.0173 -5.9694 113° Southeast 502 578 39,500  Level FlightAware UK
Sun 02:33:22 AM 49.0005 -5.9146 115° Southeast 504 580 39,500  Level FlightAware UK
Sun 02:33:40 AM 48.9811 -5.8612 119° Southeast 504 580 39,500  Level FlightAware UK
Sun 02:33:58 AM 48.9616 -5.8085 119° Southeast 504 580 39,500  Level FlightAware UK
Sun 02:34:16 AM 48.9421 -5.7555 119° Southeast 502 578 39,500  Level FlightAware UK
Sun 02:34:34 AM 48.9230 -5.7026 119° Southeast 502 578 39,500  Level FlightAware UK
Sun 02:34:52 AM 48.9038 -5.6498 119° Southeast 502 578 39,500  Level FlightAware UK
Sun 02:35:10 AM 48.8845 -5.5973 119° Southeast 502 578 39,500  Level FlightAware UK
Sun 02:35:28 AM 48.8650 -5.5442 119° Southeast 500 575 39,500  Level FlightAware UK
Sun 02:35:46 AM 48.8456 -5.4917 119° Southeast 500 575 39,500  Level FlightAware UK
Sun 02:36:04 AM 48.8262 -5.4393 119° Southeast 500 575 39,500  Level FlightAware UK
Sun 02:36:22 AM 48.8067 -5.3871 120° Southeast 502 578 39,500  Level FlightAware UK
Sun 02:36:40 AM 48.7871 -5.3347 120° Southeast 500 575 39,500  Level FlightAware UK
Sun 02:36:58 AM 48.7675 -5.2824 120° Southeast 500 575 39,500  Level FlightAware UK
Sun 02:37:16 AM 48.7479 -5.2299 120° Southeast 500 575 39,500  Level FlightAware UK
Sun 02:37:34 AM 48.7283 -5.1773 119° Southeast 502 578 39,500  Level FlightAware UK
Sun 02:37:52 AM 48.7087 -5.1246 119° Southeast 502 578 39,500  Level FlightAware UK
Sun 02:38:10 AM 48.6890 -5.0719 119° Southeast 502 578 39,500  Level FlightAware UK
Sun 02:38:28 AM 48.6694 -5.0189 119° Southeast 504 580 39,500  Level FlightAware UK
Sun 02:38:46 AM 48.6496 -4.9661 120° Southeast 504 580 39,500  Level FlightAware UK
Sun 02:39:04 AM 48.6295 -4.9135 120° Southeast 502 578 39,500  Level FlightAware UK
Sun 02:39:22 AM 48.6096 -4.8609 120° Southeast 500 575 39,500  Level FlightAware UK
Sun 02:39:40 AM 48.5897 -4.8084 120° Southeast 500 575 39,500  Level FlightAware UK
Sun 02:39:58 AM 48.5698 -4.7560 120° Southeast 502 578 39,500  Level FlightAware UK
Sun 02:40:16 AM 48.5498 -4.7036 120° Southeast 502 578 39,500  Level FlightAware UK
Sun 02:40:34 AM 48.5298 -4.6513 120° Southeast 502 578 39,500  Level FlightAware UK
Sun 02:40:52 AM 48.5097 -4.5990 120° Southeast 502 578 39,500  Level FlightAware UK
Sun 02:41:10 AM 48.4894 -4.5460 120° Southeast 502 578 39,500  Level FlightAware UK
Sun 02:41:28 AM 48.4692 -4.4938 120° Southeast 500 575 39,500  Level FlightAware UK
Sun 02:41:46 AM 48.4490 -4.4415 120° Southeast 500 575 39,500  Level FlightAware UK
Sun 02:42:04 AM 48.4288 -4.3891 120° Southeast 504 580 39,500  Level FlightAware UK
Sun 02:42:22 AM 48.4086 -4.3366 120° Southeast 502 578 39,500  Level FlightAware UK
Sun 02:42:40 AM 48.3883 -4.2840 120° Southeast 504 580 39,500  Level FlightAware UK
Sun 02:42:58 AM 48.3681 -4.2314 120° Southeast 504 580 39,500  Level FlightAware UK
Sun 02:43:16 AM 48.3478 -4.1790 120° Southeast 502 578 39,500  Level FlightAware UK
Sun 02:43:34 AM 48.3275 -4.1266 120° Southeast 502 578 39,500  Level FlightAware UK
Sun 02:43:52 AM 48.3056 -4.0759 123° Southeast 500 575 39,500  Level FlightAware UK
Sun 02:44:10 AM 48.2809 -4.0279 128° Southeast 502 578 39,500  Level FlightAware UK
Sun 02:44:28 AM 48.2544 -3.9827 131° Southeast 502 578 39,500  Level FlightAware UK
Sun 02:46:00 AM 48.2052 -3.7037 105° East  Level Estimated
Sun 02:53:00 AM 47.9555 -2.3490 105° East  Level Estimated
Sun 02:54:00 AM 47.9185 -2.1566 106° East  Level Estimated
Sun 02:55:00 AM 47.8812 -1.9644 106° East  Level Estimated
Sun 02:56:00 AM 47.8436 -1.7725 106° East  Level Estimated
Sun 02:57:00 AM 47.8056 -1.5809 106° East  Level Estimated
Sun 02:58:00 AM 47.7674 -1.3896 107° East  Level Estimated
Sun 02:59:00 AM 47.7288 -1.1985 107° East  Level Estimated
Sun 03:00:00 AM 47.6899 -1.0078 107° East  Level Estimated
Sun 03:01:00 AM 47.6507 -0.8173 107° East  Level Estimated
Sun 03:02:00 AM 47.6112 -0.6271 107° East  Level Estimated
Sun 03:03:00 AM 47.5714 -0.4372 107° East  Level Estimated
Sun 03:04:00 AM 47.5312 -0.2476 107° East  Level Estimated
Sun 03:05:00 AM 47.4907 -0.0583 107° East  Level Estimated
Sun 03:06:00 AM 47.4500 0.1308 108° East  Level Estimated
Sun 03:07:00 AM 47.4089 0.3195 108° East  Level Estimated
Sun 03:08:00 AM 47.3675 0.5079 108° East  Level Estimated
Sun 03:09:00 AM 47.3258 0.6961 108° East  Level Estimated
Sun 03:10:00 AM 47.2838 0.8839 108° East  Level Estimated
Sun 03:11:00 AM 47.2415 1.0715 108° East  Level Estimated
Sun 03:12:00 AM 47.1989 1.2587 108° East  Level Estimated
Sun 03:13:00 AM 47.1560 1.4457 109° East  Level Estimated
Sun 03:14:00 AM 47.1127 1.6323 109° East  Level Estimated
Sun 03:15:00 AM 47.0692 1.8186 109° East  Level Estimated
Sun 03:16:00 AM 47.0254 2.0047 109° East  Level Estimated
Sun 03:17:00 AM 46.9813 2.1904 109° East  Level Estimated
Sun 03:18:00 AM 46.9368 2.3758 109° East  Level Estimated
Sun 03:19:00 AM 46.8921 2.5609 109° East  Level Estimated
Sun 03:20:00 AM 46.8471 2.7457 110° East  Level Estimated
Sun 03:21:00 AM 46.8017 2.9302 110° East  Level Estimated
Sun 03:22:00 AM 46.7561 3.1144 110° East  Level Estimated
Sun 03:23:00 AM 46.7102 3.2983 110° East  Level Estimated
Sun 03:24:00 AM 46.6640 3.4818 110° East  Level Estimated
Sun 03:25:00 AM 46.6175 3.6651 110° East  Level Estimated
Sun 03:26:00 AM 46.5707 3.8480 110° East  Level Estimated
Sun 03:27:00 AM 46.5236 4.0306 110° East  Level Estimated
Sun 03:28:00 AM 46.4763 4.2129 111° Southeast  Level Estimated
Sun 03:29:00 AM 46.4286 4.3948 111° Southeast  Level Estimated
Sun 03:30:00 AM 46.3806 4.5765 111° Southeast  Level Estimated
Sun 03:31:00 AM 46.3324 4.7578 111° Southeast  Level Estimated
Sun 03:32:00 AM 46.2839 4.9388 111° Southeast  Level Estimated
Sun 03:33:00 AM 46.2351 5.1195 111° Southeast  Level Estimated
Sun 03:34:00 AM 46.1860 5.2999 111° Southeast  Level Estimated
Sun 03:35:00 AM 46.1366 5.4799 112° Southeast  Level Estimated
Sun 03:36:00 AM 46.0869 5.6597 112° Southeast  Level Estimated
Sun 03:37:00 AM 46.0370 5.8391 112° Southeast  Level Estimated
Sun 03:38:00 AM 45.9868 6.0181 112° Southeast  Level Estimated
Sun 03:39:00 AM 45.9363 6.1969 112° Southeast  Level Estimated
Sun 03:40:00 AM 45.8855 6.3753 112° Southeast  Level Estimated
Sun 03:41:00 AM 45.8344 6.5534 112° Southeast  Level Estimated
Sun 03:42:00 AM 45.7831 6.7312 112° Southeast  Level Estimated
Sun 03:43:00 AM 45.7315 6.9086 113° Southeast  Level Estimated
Sun 03:44:00 AM 45.6796 7.0857 113° Southeast  Level Estimated
Sun 03:45:00 AM 45.6275 7.2625 113° Southeast  Level Estimated
Sun 03:46:00 AM 45.5750 7.4390 113° Southeast  Level Estimated
Sun 03:47:00 AM 45.5223 7.6151 113° Southeast  Level Estimated
Sun 03:48:00 AM 45.4694 7.7909 113° Southeast  Level Estimated
Sun 03:49:00 AM 45.4161 7.9663 113° Southeast  Level Estimated
Sun 03:50:00 AM 45.3626 8.1414 113° Southeast  Level Estimated
Sun 03:51:00 AM 45.3089 8.3162 114° Southeast  Level Estimated
Sun 03:52:00 AM 45.2548 8.4907 114° Southeast  Level Estimated
Sun 03:53:00 AM 45.2005 8.6649 114° Southeast  Level Estimated
Sun 03:54:00 AM 45.1460 8.8386 114° Southeast  Level Estimated
Sun 03:55:00 AM 45.0911 9.0121 114° Southeast  Level Estimated
Sun 03:56:00 AM 45.0360 9.1853 114° Southeast  Level Estimated
Sun 03:57:00 AM 44.9807 9.3581 114° Southeast  Level Estimated
Sun 03:58:00 AM 44.9251 9.5305 114° Southeast  Level Estimated
Sun 03:59:00 AM 44.8692 9.7027 115° Southeast  Level Estimated
Sun 04:00:00 AM 44.8131 9.8744 115° Southeast  Level Estimated
Sun 04:01:00 AM 44.7567 10.0459 115° Southeast  Level Estimated
Sun 04:02:00 AM 44.7000 10.2170 115° Southeast  Level Estimated
Sun 04:03:00 AM 44.6431 10.3878 115° Southeast  Level Estimated
Sun 04:04:00 AM 44.5860 10.5583 115° Southeast  Level Estimated
Sun 04:05:00 AM 44.5286 10.7284 115° Southeast  Level Estimated
Sun 04:06:00 AM 44.4709 10.8982 115° Southeast  Level Estimated
Sun 04:07:00 AM 44.4130 11.0676 116° Southeast  Level Estimated
Sun 04:08:00 AM 44.3549 11.2367 116° Southeast  Level Estimated
Sun 04:09:00 AM 44.2964 11.4055 116° Southeast  Level Estimated
Sun 04:10:00 AM 44.2378 11.5740 116° Southeast  Level Estimated
Sun 04:11:00 AM 44.1789 11.7421 116° Southeast  Level Estimated
Sun 04:12:00 AM 44.1197 11.9098 116° Southeast  Level Estimated
Sun 04:13:00 AM 44.0603 12.0773 116° Southeast  Level Estimated
Sun 04:14:00 AM 44.0007 12.2444 116° Southeast  Level Estimated
Sun 04:15:00 AM 43.9408 12.4111 116° Southeast  Level Estimated
Sun 04:16:00 AM 43.8807 12.5775 117° Southeast  Level Estimated
Sun 04:17:00 AM 43.8203 12.7436 117° Southeast  Level Estimated
Sun 04:18:00 AM 43.7597 12.9094 117° Southeast  Level Estimated
Sun 04:19:00 AM 43.6989 13.0748 117° Southeast  Level Estimated
Sun 04:20:00 AM 43.6378 13.2399 117° Southeast  Level Estimated
Sun 04:21:00 AM 43.5765 13.4046 117° Southeast  Level Estimated
Sun 04:22:00 AM 43.5149 13.5690 117° Southeast  Level Estimated
Sun 04:23:00 AM 43.4532 13.7331 117° Southeast  Level Estimated
Sun 04:24:00 AM 43.3911 13.8968 117° Southeast  Level Estimated
Sun 04:25:00 AM 43.3289 14.0602 118° Southeast  Level Estimated
Sun 04:26:00 AM 43.2664 14.2233 118° Southeast  Level Estimated
Sun 04:27:00 AM 43.2037 14.3860 118° Southeast  Level Estimated
Sun 04:28:00 AM 43.1407 14.5484 118° Southeast  Level Estimated
Sun 04:29:00 AM 43.0775 14.7105 118° Southeast  Level Estimated
Sun 04:30:00 AM 43.0141 14.8722 118° Southeast  Level Estimated
Sun 04:31:00 AM 42.9505 15.0336 118° Southeast  Level Estimated
Sun 04:32:00 AM 42.8866 15.1947 118° Southeast  Level Estimated
Sun 04:33:00 AM 42.8226 15.3554 118° Southeast  Level Estimated
Sun 04:34:00 AM 42.7582 15.5158 119° Southeast  Level Estimated
Sun 04:35:00 AM 42.6937 15.6758 119° Southeast  Level Estimated
Sun 04:36:00 AM 42.6289 15.8356 119° Southeast  Level Estimated
Sun 04:37:00 AM 42.5640 15.9949 119° Southeast  Level Estimated
Sun 04:38:00 AM 42.4988 16.1540 119° Southeast  Level Estimated
Sun 04:39:00 AM 42.4333 16.3127 119° Southeast  Level Estimated
Sun 04:40:00 AM 42.3677 16.4711 119° Southeast  Level Estimated
Sun 04:41:00 AM 42.3019 16.6292 119° Southeast  Level Estimated
Sun 04:42:00 AM 42.2358 16.7869 119° Southeast  Level Estimated
Sun 04:43:00 AM 42.1695 16.9443 120° Southeast  Level Estimated
Sun 04:44:00 AM 42.1030 17.1014 120° Southeast  Level Estimated
Sun 04:45:00 AM 42.0363 17.2581 120° Southeast  Level Estimated
Sun 04:46:00 AM 41.9694 17.4145 120° Southeast  Level Estimated
Sun 04:47:00 AM 41.9022 17.5706 120° Southeast  Level Estimated
Sun 04:48:00 AM 41.8349 17.7264 120° Southeast  Level Estimated
Sun 04:49:00 AM 41.7673 17.8818 120° Southeast  Level Estimated
Sun 04:50:00 AM 41.6995 18.0369 120° Southeast  Level Estimated
Sun 04:51:00 AM 41.6316 18.1917 120° Southeast  Level Estimated
Sun 04:52:00 AM 41.5634 18.3461 121° Southeast  Level Estimated
Sun 04:53:00 AM 41.4950 18.5003 121° Southeast  Level Estimated
Sun 04:54:00 AM 41.4264 18.6541 121° Southeast  Level Estimated
Sun 04:55:00 AM 41.3576 18.8075 121° Southeast  Level Estimated
Sun 04:56:00 AM 41.2886 18.9607 121° Southeast  Level Estimated
Sun 04:57:00 AM 41.2194 19.1135 121° Southeast  Level Estimated
Sun 04:58:00 AM 41.1500 19.2660 121° Southeast  Level Estimated
Sun 04:59:00 AM 41.0804 19.4182 121° Southeast  Level Estimated
Sun 05:00:00 AM 41.0106 19.5700 121° Southeast  Level Estimated
Sun 05:01:00 AM 40.9405 19.7216 121° Southeast  Level Estimated
Sun 05:02:00 AM 40.8703 19.8728 122° Southeast  Level Estimated
Sun 05:03:00 AM 40.7999 20.0237 122° Southeast  Level Estimated
Sun 05:04:00 AM 40.7293 20.1742 122° Southeast  Level Estimated
Sun 05:05:00 AM 40.6586 20.3245 122° Southeast  Level Estimated
Sun 05:06:00 AM 40.5876 20.4744 122° Southeast  Level Estimated
Sun 05:07:00 AM 40.5164 20.6240 122° Southeast  Level Estimated
Sun 05:08:00 AM 40.4450 20.7733 122° Southeast  Level Estimated
Sun 05:09:00 AM 40.3734 20.9223 122° Southeast  Level Estimated
Sun 05:10:00 AM 40.3017 21.0709 122° Southeast  Level Estimated
Sun 05:11:00 AM 40.2297 21.2193 122° Southeast  Level Estimated
Sun 05:12:00 AM 40.1576 21.3673 122° Southeast  Level Estimated
Sun 05:13:00 AM 40.0853 21.5151 123° Southeast  Level Estimated
Sun 05:14:00 AM 40.0128 21.6625 123° Southeast  Level Estimated
Sun 05:15:00 AM 39.9401 21.8095 123° Southeast  Level Estimated
Sun 05:16:00 AM 39.8672 21.9563 123° Southeast  Level Estimated
Sun 05:17:00 AM 39.7941 22.1028 123° Southeast  Level Estimated
Sun 05:18:00 AM 39.7209 22.2489 123° Southeast  Level Estimated
Sun 05:19:00 AM 39.6474 22.3948 123° Southeast  Level Estimated
Sun 05:20:00 AM 39.5738 22.5403 123° Southeast  Level Estimated
Sun 05:21:00 AM 39.5000 22.6855 123° Southeast  Level Estimated
Sun 05:22:00 AM 39.4260 22.8304 123° Southeast  Level Estimated
Sun 05:23:00 AM 39.3519 22.9750 124° Southeast  Level Estimated
Sun 05:24:00 AM 39.2775 23.1193 124° Southeast  Level Estimated
Sun 05:25:00 AM 39.2030 23.2633 124° Southeast  Level Estimated
Sun 05:26:00 AM 39.1283 23.4070 124° Southeast  Level Estimated
Sun 05:27:00 AM 39.0535 23.5504 124° Southeast  Level Estimated
Sun 05:28:00 AM 38.9784 23.6935 124° Southeast  Level Estimated
Sun 05:29:00 AM 38.9032 23.8363 124° Southeast  Level Estimated
Sun 05:30:00 AM 38.8278 23.9787 124° Southeast  Level Estimated
Sun 05:31:00 AM 38.7523 24.1209 124° Southeast  Level Estimated
Sun 05:32:00 AM 38.6766 24.2628 124° Southeast  Level Estimated
Sun 05:33:00 AM 38.6007 24.4043 124° Southeast  Level Estimated
Sun 05:34:00 AM 38.5246 24.5456 125° Southeast  Level Estimated
Sun 05:35:00 AM 38.4483 24.6866 125° Southeast  Level Estimated
Sun 05:36:00 AM 38.3719 24.8272 125° Southeast  Level Estimated
Sun 05:37:00 AM 38.2953 24.9676 125° Southeast  Level Estimated
Sun 05:38:00 AM 38.2186 25.1077 125° Southeast  Level Estimated
Sun 05:39:00 AM 38.1417 25.2475 125° Southeast  Level Estimated
Sun 05:40:00 AM 38.0646 25.3870 125° Southeast  Level Estimated
Sun 05:41:00 AM 37.9874 25.5262 125° Southeast  Level Estimated
Sun 05:42:00 AM 37.9100 25.6651 125° Southeast  Level Estimated
Sun 05:43:00 AM 37.8324 25.8037 125° Southeast  Level Estimated
Sun 05:44:00 AM 37.7547 25.9420 125° Southeast  Level Estimated
Sun 05:45:00 AM 37.6768 26.0800 125° Southeast  Level Estimated
Sun 05:46:00 AM 37.5987 26.2178 126° Southeast  Level Estimated
Sun 05:47:00 AM 37.5205 26.3552 126° Southeast  Level Estimated
Sun 05:48:00 AM 37.4421 26.4924 126° Southeast  Level Estimated
Sun 05:49:00 AM 37.3636 26.6293 126° Southeast  Level Estimated
Sun 05:50:00 AM 37.2849 26.7659 126° Southeast  Level Estimated
Sun 05:51:00 AM 37.2061 26.9022 126° Southeast  Level Estimated
Sun 05:52:00 AM 37.1271 27.0382 126° Southeast  Level Estimated
Sun 05:53:00 AM 37.0479 27.1739 126° Southeast  Level Estimated
Sun 05:54:00 AM 36.9686 27.3094 126° Southeast  Level Estimated
Sun 05:55:00 AM 36.8892 27.4445 126° Southeast  Level Estimated
Sun 05:56:00 AM 36.8095 27.5794 126° Southeast  Level Estimated
Sun 05:57:00 AM 36.7298 27.7140 126° Southeast  Level Estimated
Sun 05:58:00 AM 36.6498 27.8484 127° Southeast  Level Estimated
Sun 05:59:00 AM 36.5698 27.9824 127° Southeast  Level Estimated
Sun 06:00:00 AM 36.4896 28.1162 127° Southeast  Level Estimated
Sun 06:01:00 AM 36.4092 28.2497 127° Southeast  Level Estimated
Sun 06:02:00 AM 36.3287 28.3829 127° Southeast  Level Estimated
Sun 06:03:00 AM 36.2480 28.5158 127° Southeast  Level Estimated
Sun 06:04:00 AM 36.1672 28.6485 127° Southeast  Level Estimated
Sun 06:05:00 AM 36.0862 28.7809 127° Southeast  Level Estimated
Sun 06:06:00 AM 36.0051 28.9130 127° Southeast  Level Estimated
Sun 06:07:00 AM 35.9239 29.0449 127° Southeast  Level Estimated
Sun 06:08:00 AM 35.8425 29.1764 127° Southeast  Level Estimated
Sun 06:09:00 AM 35.7610 29.3078 127° Southeast  Level Estimated
Sun 06:10:00 AM 35.6793 29.4388 127° Southeast  Level Estimated
Sun 06:11:00 AM 35.5975 29.5696 128° Southeast  Level Estimated
Sun 06:12:00 AM 35.5155 29.7001 128° Southeast  Level Estimated
Sun 06:13:00 AM 35.4334 29.8303 128° Southeast  Level Estimated
Sun 06:14:00 AM 35.3512 29.9603 128° Southeast  Level Estimated
Sun 06:15:00 AM 35.2688 30.0900 128° Southeast  Level Estimated
Sun 06:16:00 AM 35.1863 30.2194 128° Southeast  Level Estimated
Sun 06:17:00 AM 35.1036 30.3486 128° Southeast  Level Estimated
Sun 06:18:00 AM 35.0208 30.4775 128° Southeast  Level Estimated
Sun 06:19:00 AM 34.9379 30.6062 128° Southeast  Level Estimated
Sun 06:20:00 AM 34.8548 30.7346 128° Southeast  Level Estimated
Sun 06:21:00 AM 34.7716 30.8627 128° Southeast  Level Estimated
Sun 06:22:00 AM 34.6883 30.9906 128° Southeast  Level Estimated
Sun 06:23:00 AM 34.6049 31.1182 128° Southeast  Level Estimated
Sun 06:24:00 AM 34.5213 31.2456 129° Southeast  Level Estimated
Sun 06:25:00 AM 34.4375 31.3727 129° Southeast  Level Estimated
Sun 06:26:00 AM 34.3537 31.4996 129° Southeast  Level Estimated
Sun 06:27:00 AM 34.2697 31.6262 129° Southeast  Level Estimated
Sun 06:28:00 AM 34.1856 31.7525 129° Southeast  Level Estimated
Sun 06:29:00 AM 34.1013 31.8786 129° Southeast  Level Estimated
Sun 06:30:00 AM 34.0169 32.0045 129° Southeast  Level Estimated
Sun 06:31:00 AM 33.9324 32.1301 129° Southeast  Level Estimated
Sun 06:32:00 AM 33.8478 32.2554 129° Southeast  Level Estimated
Sun 06:33:00 AM 33.7630 32.3805 129° Southeast  Level Estimated
Sun 06:34:00 AM 33.6782 32.5054 129° Southeast  Level Estimated
Sun 06:35:00 AM 33.5931 32.6300 129° Southeast  Level Estimated
Sun 06:36:00 AM 33.5080 32.7543 129° Southeast  Level Estimated
Sun 06:37:00 AM 33.4227 32.8784 129° Southeast  Level Estimated
Sun 06:38:00 AM 33.3374 33.0023 130° Southeast  Level Estimated
Sun 06:39:00 AM 33.2519 33.1259 130° Southeast  Level Estimated
Sun 06:40:00 AM 33.1662 33.2493 130° Southeast  Level Estimated
Sun 06:41:00 AM 33.0805 33.3725 130° Southeast  Level Estimated
Sun 06:42:00 AM 32.9946 33.4954 130° Southeast  Level Estimated
Sun 06:43:00 AM 32.9086 33.6181 130° Southeast  Level Estimated
Sun 06:44:00 AM 32.8225 33.7405 130° Southeast  Level Estimated
Sun 06:45:00 AM 32.7363 33.8627 130° Southeast  Level Estimated
Sun 06:46:00 AM 32.6499 33.9846 130° Southeast  Level Estimated
Sun 06:47:00 AM 32.5635 34.1064 130° Southeast  Level Estimated
Sun 06:48:00 AM 32.4769 34.2278 130° Southeast  Level Estimated
Sun 06:49:00 AM 32.3902 34.3491 130° Southeast  Level Estimated
Sun 06:50:00 AM 32.3034 34.4701 130° Southeast  Level Estimated
Sun 06:51:00 AM 32.2164 34.5909 130° Southeast  Level Estimated
Sun 06:52:00 AM 32.1294 34.7115 130° Southeast  Level Estimated
Sun 06:53:00 AM 32.0423 34.8318 130° Southeast  Level Estimated
Sun 06:54:00 AM 32.0095 34.8769 131° Southeast  Level Estimated
Sun 06:55:00 AM 32.0095 34.8769 270° West  Level Estimated
Sun 06:56:00 AM 32.0095 34.8769 270° West  Level Estimated
Sun 06:57:00 AM 32.0095 34.8769 270° West  Level Estimated
Sun 06:58:00 AM 32.0095 34.8769 270° West  Level Estimated
Sun 06:59:00 AM 32.0095 34.8769 270° West  Level Estimated
Sun 07:00:00 AM 32.0095 34.8769 270° West  Level Estimated
Sun 07:01:00 AM 32.0095 34.8769 270° West  Level Estimated
Sun 07:02:00 AM 32.0095 34.8769 270° West  Level Estimated
Sun 07:03:00 AM 32.0095 34.8769 270° West  Level Estimated
Sun 07:04:00 AM 32.0095 34.8769 270° West  Level Estimated
Sun 07:05:00 AM 32.0095 34.8769 270° West  Level Estimated
Sun 07:06:00 AM 32.0095 34.8769 270° West  Level Estimated
Sun 07:07:00 AM 32.0095 34.8769 270° West  Level Estimated
Sun 07:08:00 AM 32.0095 34.8769 270° West  Level Estimated
Sun 07:09:00 AM 32.0095 34.8769 270° West  Level Estimated
Sun 07:10:00 AM 32.0095 34.8769 270° West  Level Estimated
Sun 07:11:00 AM 32.0095 34.8769 270° West  Level Estimated
Sun 07:12:00 AM 32.0095 34.8769 270° West  Level Estimated
Sun 07:13:00 AM 32.0095 34.8769 270° West  Level Estimated
Sun 07:14:00 AM 32.0095 34.8769 270° West  Level Estimated
Sun 07:15:00 AM 32.0095 34.8769 270° West  Level Estimated
Sun 07:16:00 AM 32.0095 34.8769 270° West  Level Estimated
Sun 07:17:00 AM 32.0095 34.8769 270° West  Level Estimated
Sun 07:18:00 AM 32.0095 34.8769 270° West  Level Estimated
Sun 07:19:00 AM 32.0095 34.8769 270° West  Level Estimated
Sun 07:20:00 AM 32.0095 34.8769 270° West  Level Estimated
Sun 07:21:00 AM 32.0095 34.8769 270° West  Level Estimated
Sun 07:22:00 AM 32.0095 34.8769 270° West  Level Estimated
Sun 07:23:00 AM 32.0095 34.8769 270° West  Level Estimated
Sun 07:24:00 AM 32.0095 34.8769 270° West  Level Estimated
Sun 07:25:00 AM 32.0095 34.8769 270° West  Level Estimated
Sun 07:26:00 AM 32.0095 34.8769 270° West  Level Estimated
Sun 07:27:00 AM 32.0095 34.8769 270° West  Level Estimated
Sun 07:28:00 AM 32.0095 34.8769 270° West  Level Estimated
Sun 07:29:00 AM 32.0095 34.8769 270° West  Level Estimated
Sun 07:30:00 AM 32.0095 34.8769 270° West  Level Estimated
Sun 07:31:00 AM 32.0095 34.8769 270° West  Level Estimated
Sun 07:32:00 AM 32.0095 34.8769 270° West  Level Estimated
Sun 07:33:00 AM 32.0095 34.8769 270° West  Level Estimated
Sun 07:34:00 AM 32.0095 34.8769 270° West  Level Estimated
Sun 07:35:00 AM 32.0095 34.8769 270° West  Level Estimated
Sun 07:36:00 AM 32.0095 34.8769 270° West  Level Estimated

Login

Don't have an account? Register now (free) for customized features, flight alerts, and more!